Flight Track Log - Related Links

Times and Time Zones

All times are in EDT time to prevent confusion due to time zone crossing. See the N211JN flight status page for this flight to view local times or setup timezone preferences in your user account.

Time Position Orientation Groundspeed Altitude Reporting Facility
EDT Latitude Longitude Course Direction KTS MPH feet Rate Location/Type
Mon 10:19:15 AM 40.7993 -74.2181 North  Level FlightAware Approximate
Mon 10:20:16 AM 40.8258 -74.2156 276° West 231 266 4,900  Level New York Center
Mon 10:21:16 AM 40.8336 -74.3092 277° West 236 272 9,000 3,223 Climbing New York Center
Mon 10:22:17 AM 40.8414 -74.3917 263° West 265 305 11,400 2,459 Climbing New York Center
Mon 10:23:18 AM 40.8317 -74.5036 237° Southwest 277 319 14,000 2,420 Climbing New York Center
Mon 10:24:16 AM 40.7917 -74.5864 235° Southwest 293 337 16,200 2,017 Climbing New York Center
Mon 10:25:17 AM 40.7361 -74.6928 234° Southwest 321 369 18,000 2,017 Climbing New York Center
Mon 10:26:15 AM 40.6828 -74.7911 237° Southwest 326 375 20,200 1,900 Climbing New York Center
Mon 10:27:17 AM 40.6314 -74.8947 235° Southwest 326 375 21,800 1,850 Climbing New York Center
Mon 10:28:15 AM 40.5756 -74.9978 231° Southwest 338 389 23,900 1,714 Climbing New York Center
Mon 10:29:16 AM 40.5178 -75.0925 231° Southwest 356 410 25,200 1,525 Climbing New York Center
Mon 10:30:17 AM 40.4469 -75.2056 230° Southwest 372 428 27,000 1,884 Climbing New York Center
Mon 10:31:17 AM 40.3828 -75.3075 231° Southwest 372 428 29,000 1,815 Climbing New York Center
Mon 10:32:16 AM 40.3272 -75.3964 230° Southwest 361 415 30,600 1,513 Climbing New York Center
Mon 10:33:16 AM 40.2583 -75.5033 232° Southwest 356 410 32,000 1,160 Climbing New York Center
Mon 10:34:15 AM 40.2044 -75.5950 239° Southwest 356 410 32,900 950 Climbing New York Center
Mon 10:35:16 AM 40.1542 -75.7028 237° Southwest 356 410 33,900 942 Climbing New York Center
Mon 10:36:16 AM 40.0994 -75.8128 234° Southwest 356 410 34,800 1,008 Climbing New York Center
Mon 10:37:15 AM 40.0339 -75.9303 237° Southwest 371 427 35,900 605 Climbing New York Center
Mon 10:38:15 AM 39.9747 -76.0478 236° Southwest 382 440 36,000 50 Climbing New York Center
Mon 10:39:16 AM 39.9131 -76.1650 240° Southwest 392 451 36,000  Level New York Center
Mon 10:40:16 AM 39.8569 -76.2931 235° Southwest 398 458 36,000  Level New York Center
Mon 10:41:17 AM 39.7953 -76.4097 235° Southwest 422 486 36,000  Level New York Center
Mon 10:42:18 AM 39.7286 -76.5342 236° Southwest 429 494 36,000  Level New York Center
Mon 10:43:15 AM 39.6619 -76.6633 237° Southwest 429 494 36,000  Level New York Center
Mon 10:44:16 AM 39.5969 -76.7928 235° Southwest 429 494 36,000  Level New York Center
Mon 10:45:16 AM 39.5278 -76.9217 225° Southwest 429 494 36,000  Level New York Center
Mon 10:46:28 AM 39.4256 -77.0558 219° Southwest 433 498 36,000  Level Washington Center
Mon 10:47:29 AM 39.3306 -77.1558 218° Southwest 433 498 36,000  Level Washington Center
Mon 10:48:30 AM 39.2356 -77.2531 219° Southwest 440 506 36,000  Level Washington Center
Mon 10:49:30 AM 39.1381 -77.3550 218° Southwest 445 512 36,000  Level Washington Center
Mon 10:50:31 AM 39.0386 -77.4542 219° Southwest 456 525 36,000  Level Washington Center
Mon 10:51:30 AM 38.9433 -77.5533 219° Southwest 455 524 36,000  Level Washington Center
Mon 10:52:30 AM 38.8372 -77.6625 219° Southwest 455 524 36,000  Level Washington Center
Mon 10:53:30 AM 38.7436 -77.7608 219° Southwest 450 518 36,000  Level Washington Center
Mon 10:54:31 AM 38.6567 -77.8514 229° Southwest 450 518 36,000  Level Washington Center
Mon 10:55:28 AM 38.5686 -77.9817 233° Southwest 447 514 36,000  Level Washington Center
Mon 10:56:30 AM 38.4953 -78.1064 234° Southwest 447 514 36,000  Level Washington Center
Mon 10:57:31 AM 38.4258 -78.2286 233° Southwest 441 507 36,000  Level Washington Center
Mon 10:58:29 AM 38.3586 -78.3403 233° Southwest 441 507 36,000  Level Washington Center
Mon 10:59:30 AM 38.2892 -78.4594 235° Southwest 441 507 36,000  Level Washington Center
Mon 11:00:30 AM 38.2214 -78.5836 233° Southwest 441 507 36,000  Level Washington Center
Mon 11:01:31 AM 38.1517 -78.6997 233° Southwest 436 502 36,000  Level Washington Center
Mon 11:02:29 AM 38.0775 -78.8231 233° Southwest 436 502 36,000  Level Washington Center
Mon 11:03:30 AM 37.9989 -78.9542 231° Southwest 436 502 36,000  Level Washington Center
Mon 11:04:31 AM 37.9247 -79.0719 231° Southwest 436 502 36,000  Level Washington Center
Mon 11:05:29 AM 37.8483 -79.1894 228° Southwest 436 502 36,000  Level Washington Center
Mon 11:06:29 AM 37.7675 -79.3011 230° Southwest 436 502 36,000  Level Washington Center
Mon 11:07:29 AM 37.6867 -79.4231 230° Southwest 449 517 36,000  Level Washington Center
Mon 11:08:31 AM 37.6100 -79.5372 230° Southwest 443 510 36,000  Level Washington Center
Mon 11:09:28 AM 37.5308 -79.6564 230° Southwest 443 510 36,000 254 Level Washington Center
Mon 11:10:29 AM 37.4539 -79.7700 231° Southwest 443 510 36,500 488 Climbing Washington Center
Mon 11:11:31 AM 37.3897 -79.8711 229° Southwest 436 502 37,000 194 Climbing Washington Center
Mon 11:13:04 AM 37.2675 -80.0489 230° Southwest 421 484 37,000  Level Atlanta Center
Mon 11:14:04 AM 37.1900 -80.1647 230° Southwest 421 484 37,000  Level Atlanta Center
Mon 11:15:04 AM 37.1122 -80.2806 230° Southwest 426 490 37,000  Level Atlanta Center
Mon 11:16:04 AM 37.0283 -80.4042 230° Southwest 426 490 37,000  Level Atlanta Center
Mon 11:17:04 AM 36.9503 -80.5194 230° Southwest 432 497 37,000  Level Atlanta Center
Mon 11:18:04 AM 36.8722 -80.6344 229° Southwest 432 497 37,000  Level Atlanta Center
Mon 11:19:04 AM 36.7942 -80.7467 230° Southwest 432 497 37,000  Level Atlanta Center
Mon 11:20:04 AM 36.7278 -80.8453 230° Southwest 431 496 37,000  Level Atlanta Center
Mon 11:21:04 AM 36.6494 -80.9622 230° Southwest 431 496 37,000  Level Atlanta Center
Mon 11:22:04 AM 36.5711 -81.0764 230° Southwest 436 502 37,000  Level Atlanta Center
Mon 11:23:04 AM 36.4864 -81.2008 230° Southwest 436 502 37,000  Level Atlanta Center
Mon 11:24:04 AM 36.4078 -81.3172 229° Southwest 436 502 37,000  Level Atlanta Center
Mon 11:25:04 AM 36.3308 -81.4281 228° Southwest 436 502 37,000  Level Atlanta Center
Mon 11:26:04 AM 36.2497 -81.5414 230° Southwest 436 502 37,000  Level Atlanta Center
Mon 11:27:04 AM 36.1728 -81.6544 230° Southwest 443 510 37,000  Level Atlanta Center
Mon 11:28:04 AM 36.0936 -81.7697 228° Southwest 430 495 37,000  Level Atlanta Center
Mon 11:29:04 AM 36.0142 -81.8797 229° Southwest 430 495 37,000  Level Atlanta Center
Mon 11:30:04 AM 35.9347 -81.9922 228° Southwest 436 502 37,000  Level Atlanta Center
Mon 11:31:04 AM 35.8533 -82.1044 229° Southwest 436 502 37,000  Level Atlanta Center
Mon 11:32:04 AM 35.7756 -82.2164 230° Southwest 436 502 37,000 -450 Level Atlanta Center
Mon 11:33:04 AM 35.6981 -82.3281 228° Southwest 436 502 36,100 -950 Descending Atlanta Center
Mon 11:34:04 AM 35.6161 -82.4394 229° Southwest 436 502 35,100 -550 Descending Atlanta Center
Mon 11:35:04 AM 35.5381 -82.5508 225° Southwest 436 502 35,000 -50 Descending Atlanta Center
Mon 11:36:04 AM 35.4539 -82.6544 229° Southwest 436 502 35,000 -700 Level Atlanta Center
Mon 11:37:04 AM 35.3839 -82.7547 228° Southwest 436 502 33,600 -1,750 Descending Atlanta Center
Mon 11:38:04 AM 35.3036 -82.8631 229° Southwest 436 502 31,500 -2,200 Descending Atlanta Center
Mon 11:39:04 AM 35.2131 -82.9889 229° Southwest 447 514 29,200 -2,100 Descending Atlanta Center
Mon 11:40:04 AM 35.1408 -83.0889 229° Southwest 441 507 27,300 -1,950 Descending Atlanta Center
Mon 11:41:04 AM 35.0622 -83.1989 228° Southwest 436 502 25,300 -1,950 Descending Atlanta Center
Mon 11:42:04 AM 34.9878 -83.2986 228° Southwest 426 490 23,400 -1,800 Descending Atlanta Center
Mon 11:43:04 AM 34.9111 -83.4031 228° Southwest 420 483 21,700 -1,700 Descending Atlanta Center
Mon 11:44:04 AM 34.8386 -83.4997 228° Southwest 409 471 20,000 -1,750 Descending Atlanta Center
Mon 11:45:04 AM 34.7681 -83.5964 229° Southwest 391 450 18,200 -1,700 Descending Atlanta Center
Mon 11:46:04 AM 34.6994 -83.6928 228° Southwest 391 450 16,600 -1,650 Descending Atlanta Center
Mon 11:47:04 AM 34.6308 -83.7864 227° Southwest 379 436 14,900 -1,900 Descending Atlanta Center
Mon 11:48:04 AM 34.5642 -83.8722 228° Southwest 368 423 12,800 -1,750 Descending Atlanta Center
Mon 11:49:04 AM 34.5039 -83.9531 216° Southwest 333 383 11,400 -1,388 Descending Atlanta Center
Mon 11:50:05 AM 34.4328 -84.0161 202° Southwest 307 353 10,000 -1,400 Descending Atlanta Center
Mon 11:51:04 AM 34.3642 -84.0489 203° Southwest 286 329 8,600 -1,008 Descending Atlanta Center
Mon 11:52:04 AM 34.2953 -84.0842 200° South 273 314 8,000 -725 Descending Atlanta Center
Mon 11:55:04 AM 34.1053 -84.1667 192° South 237 273 5,700 -875 Descending Atlanta Center
Mon 11:56:04 AM 34.0447 -84.1817 165° South 219 252 4,500 -900 Descending Atlanta Center
Mon 11:57:04 AM 33.9903 -84.1642 193° South 209 241 3,900 -300 Descending Atlanta Center
Mon 11:58:04 AM 33.9467 -84.1764 196° South 192 221 3,900 -350 Level Atlanta Center
Mon 11:59:04 AM 33.8964 -84.1939 233° Southwest 187 215 3,200 -629 Descending Atlanta Center
Mon 12:00:27 PM 33.8500 -84.2667 239° Southwest 178 205 2,400 -503 Descending Atlanta TRACON
Mon 12:01:27 PM 33.8333 -84.3000 239° Southwest 165 190 2,000 -400 Descending Atlanta TRACON

Login

Don't have an account? Register now (free) for customized features, flight alerts, and more!